Time;durP1;ratioP1;P1;durP2;ratioP2;P2;SDS_P1;SDS_P2;PMS_P1;PMS_P2;Temp;Humidity;BMP_temperature;BMP_pressure;BME280_temperature;BME280_humidity;BME280_pressure;Samples;Min_cycle;Max_cycle;Signal;HPM_P1;HPM_P2
2024/01/19 00:02:53;;;;;;;83.78;26.92;;;;;;;;;;6242522;28;20053;-67
2024/01/19 00:05:54;;;;;;;87.47;24.30;;;;;;;;;;6244318;28;20053;-68
2024/01/19 00:08:55;;;;;;;90.63;24.73;;;;;;;;;;6241024;28;20099;-67
2024/01/19 00:11:56;;;;;;;79.43;24.15;;;;;;;;;;6240439;28;20473;-67
2024/01/19 00:14:58;;;;;;;82.13;24.92;;;;;;;;;;6235873;28;20049;-66
2024/01/19 00:17:59;;;;;;;81.82;25.27;;;;;;;;;;6237334;28;20053;-66
2024/01/19 00:21:00;;;;;;;85.05;24.58;;;;;;;;;;6238912;28;20072;-66
2024/01/19 00:24:01;;;;;;;82.25;23.20;;;;;;;;;;6238429;28;20061;-66
2024/01/19 00:27:02;;;;;;;82.00;22.25;;;;;;;;;;6238739;28;20578;-66
2024/01/19 00:30:03;;;;;;;76.20;21.98;;;;;;;;;;6238846;28;20802;-67
2024/01/19 00:33:04;;;;;;;78.40;22.67;;;;;;;;;;6238325;28;20610;-70
2024/01/19 00:36:05;;;;;;;82.38;22.42;;;;;;;;;;6238646;28;20045;-66
2024/01/19 00:39:05;;;;;;;77.10;22.50;;;;;;;;;;6239439;28;20057;-67
2024/01/19 00:42:06;;;;;;;78.78;24.50;;;;;;;;;;6237191;28;20078;-67
2024/01/19 00:45:09;;;;;;;77.35;24.73;;;;;;;;;;6236266;28;20042;-69
2024/01/19 00:48:10;;;;;;;87.45;26.67;;;;;;;;;;6238925;28;20531;-68
2024/01/19 00:51:11;;;;;;;83.80;25.45;;;;;;;;;;6238288;28;20053;-68
2024/01/19 00:54:13;;;;;;;91.80;25.90;;;;;;;;;;6235896;28;20049;-68
2024/01/19 00:57:14;;;;;;;;;;;;;;;;;;6238745;28;20050;-67
2024/01/19 01:00:15;;;;;;;89.70;26.17;;;;;;;;;;6238646;28;19921;-69
2024/01/19 01:03:23;;;;;;;80.80;23.63;;;;;;;;;;6237779;28;20505;-68
2024/01/19 01:06:24;;;;;;;81.32;22.77;;;;;;;;;;6250778;28;20061;-69
2024/01/19 01:09:25;;;;;;;81.10;24.92;;;;;;;;;;6239118;28;20130;-68
2024/01/19 01:12:26;;;;;;;81.88;24.05;;;;;;;;;;6239101;28;20374;-68
2024/01/19 01:15:26;;;;;;;83.90;24.20;;;;;;;;;;6237002;28;20060;-68
2024/01/19 01:18:28;;;;;;;87.47;25.10;;;;;;;;;;6236695;28;20048;-67
2024/01/19 01:21:28;;;;;;;81.80;24.60;;;;;;;;;;6237921;28;20525;-67
2024/01/19 01:24:29;;;;;;;81.43;23.38;;;;;;;;;;6235210;28;20092;-68
2024/01/19 01:27:30;;;;;;;82.10;21.63;;;;;;;;;;6228121;28;20390;-68
2024/01/19 01:30:31;;;;;;;77.82;22.98;;;;;;;;;;6243296;28;20468;-67
2024/01/19 01:33:31;;;;;;;77.95;23.30;;;;;;;;;;6242290;28;20045;-68
2024/01/19 01:36:32;;;;;;;63.95;20.67;;;;;;;;;;6242192;28;20057;-68
2024/01/19 01:39:33;;;;;;;66.20;21.38;;;;;;;;;;6245073;28;20076;-69
2024/01/19 01:42:34;;;;;;;67.22;20.45;;;;;;;;;;6241376;28;20045;-69
2024/01/19 01:45:35;;;;;;;71.35;21.15;;;;;;;;;;6241489;28;20042;-68
2024/01/19 01:48:36;;;;;;;63.65;19.92;;;;;;;;;;6244829;28;20045;-68
2024/01/19 01:51:37;;;;;;;72.53;21.17;;;;;;;;;;6242643;28;20463;-68
2024/01/19 01:54:38;;;;;;;74.47;21.13;;;;;;;;;;6240699;28;20044;-68
2024/01/19 01:57:41;;;;;;;54.55;18.35;;;;;;;;;;6242266;28;20033;-68
2024/01/19 02:00:43;;;;;;;53.42;16.92;;;;;;;;;;6241111;28;20095;-68
2024/01/19 02:03:45;;;;;;;46.30;14.90;;;;;;;;;;6241840;28;20073;-69
2024/01/19 02:06:45;;;;;;;46.80;15.13;;;;;;;;;;6241233;28;20132;-70
2024/01/19 02:09:46;;;;;;;48.35;15.30;;;;;;;;;;6242429;28;20485;-68
2024/01/19 02:12:47;;;;;;;54.63;15.23;;;;;;;;;;6238668;28;20107;-68
2024/01/19 02:15:48;;;;;;;54.50;15.60;;;;;;;;;;6238991;28;20483;-68
2024/01/19 02:18:49;;;;;;;46.70;15.23;;;;;;;;;;6241835;28;20497;-68
2024/01/19 02:21:50;;;;;;;51.05;15.27;;;;;;;;;;6238621;28;20053;-68
2024/01/19 02:24:51;;;;;;;50.72;14.82;;;;;;;;;;6239184;28;20049;-69
2024/01/19 02:27:52;;;;;;;46.80;13.77;;;;;;;;;;6241604;28;20066;-69
2024/01/19 02:30:54;;;;;;;46.92;13.98;;;;;;;;;;6241666;28;20045;-68
2024/01/19 02:33:54;;;;;;;48.20;13.80;;;;;;;;;;6241057;28;20056;-69
2024/01/19 02:36:55;;;;;;;43.25;12.98;;;;;;;;;;6240241;28;20056;-68
2024/01/19 02:39:56;;;;;;;43.13;13.27;;;;;;;;;;6241970;28;20061;-69
2024/01/19 02:42:57;;;;;;;37.70;10.88;;;;;;;;;;6237470;28;20080;-68
2024/01/19 02:45:57;;;;;;;36.53;10.68;;;;;;;;;;6238519;28;20477;-68
2024/01/19 02:48:58;;;;;;;38.70;12.48;;;;;;;;;;6240821;28;20045;-69
2024/01/19 02:51:59;;;;;;;36.15;11.73;;;;;;;;;;6240151;28;20050;-68
2024/01/19 02:55:00;;;;;;;38.58;11.55;;;;;;;;;;6239051;28;20077;-68
2024/01/19 02:58:00;;;;;;;31.77;10.95;;;;;;;;;;6241448;28;20076;-68
2024/01/19 03:01:01;;;;;;;36.65;11.40;;;;;;;;;;6238172;28;20033;-68
2024/01/19 03:04:03;;;;;;;38.38;11.30;;;;;;;;;;6239478;28;20412;-69
2024/01/19 03:07:04;;;;;;;35.08;11.38;;;;;;;;;;6239447;28;20049;-69
2024/01/19 03:10:05;;;;;;;37.88;10.95;;;;;;;;;;6239631;28;20046;-68
2024/01/19 03:13:06;;;;;;;34.43;11.03;;;;;;;;;;6241328;28;20056;-69
2024/01/19 03:16:07;;;;;;;44.28;11.77;;;;;;;;;;6239209;28;20295;-68
2024/01/19 03:19:08;;;;;;;38.17;11.82;;;;;;;;;;6240556;28;20037;-68
2024/01/19 03:22:08;;;;;;;42.78;12.60;;;;;;;;;;6239059;28;20107;-69
2024/01/19 03:25:09;;;;;;;43.92;10.90;;;;;;;;;;6238413;28;20049;-69
2024/01/19 03:28:10;;;;;;;34.83;12.18;;;;;;;;;;6239250;28;20057;-69
2024/01/19 03:31:11;;;;;;;41.05;11.52;;;;;;;;;;6239001;28;20045;-69
2024/01/19 03:34:12;;;;;;;40.08;11.57;;;;;;;;;;6235987;28;20538;-69
2024/01/19 03:37:13;;;;;;;40.92;12.25;;;;;;;;;;6239962;28;20042;-69
2024/01/19 03:40:13;;;;;;;39.38;11.52;;;;;;;;;;6240115;28;20129;-69
2024/01/19 03:43:15;;;;;;;38.42;10.30;;;;;;;;;;6240067;28;20061;-69
2024/01/19 03:46:16;;;;;;;31.48;9.73;;;;;;;;;;6239332;28;20057;-69
2024/01/19 03:49:17;;;;;;;29.10;9.93;;;;;;;;;;6238559;28;20052;-69
2024/01/19 03:52:18;;;;;;;27.92;9.48;;;;;;;;;;6239698;28;20829;-69
2024/01/19 03:55:19;;;;;;;29.42;10.15;;;;;;;;;;6238341;28;20126;-69
2024/01/19 03:58:19;;;;;;;28.25;9.27;;;;;;;;;;6239707;28;20053;-69
2024/01/19 04:01:21;;;;;;;28.83;10.73;;;;;;;;;;6238981;28;20060;-69
2024/01/19 04:04:25;;;;;;;33.25;10.68;;;;;;;;;;6236737;28;20442;-69
2024/01/19 04:07:26;;;;;;;37.78;11.02;;;;;;;;;;6240542;28;20488;-69
2024/01/19 04:10:27;;;;;;;30.50;10.65;;;;;;;;;;6237417;28;20057;-69
2024/01/19 04:13:28;;;;;;;30.60;10.07;;;;;;;;;;6239219;28;20080;-69
2024/01/19 04:16:28;;;;;;;29.77;10.25;;;;;;;;;;6236448;28;20054;-69
2024/01/19 04:19:29;;;;;;;28.02;9.80;;;;;;;;;;6238853;28;20126;-69
2024/01/19 04:22:30;;;;;;;31.05;9.32;;;;;;;;;;6239252;28;20144;-69
2024/01/19 04:25:31;;;;;;;30.50;9.18;;;;;;;;;;6236102;28;20053;-69
2024/01/19 04:28:31;;;;;;;27.40;9.57;;;;;;;;;;6238815;28;20554;-69
2024/01/19 04:31:32;;;;;;;26.05;9.15;;;;;;;;;;6239398;28;20045;-69
2024/01/19 04:34:32;;;;;;;33.25;9.55;;;;;;;;;;6239351;28;20405;-69
2024/01/19 04:37:33;;;;;;;30.08;10.45;;;;;;;;;;6238755;28;20240;-69
2024/01/19 04:40:34;;;;;;;32.38;9.88;;;;;;;;;;6239038;28;20053;-69
2024/01/19 04:43:35;;;;;;;34.90;11.10;;;;;;;;;;6237890;28;20058;-70
2024/01/19 04:46:35;;;;;;;26.92;9.63;;;;;;;;;;6235933;28;20054;-69
2024/01/19 04:49:37;;;;;;;25.63;8.23;;;;;;;;;;6241017;28;20546;-69
2024/01/19 04:52:37;;;;;;;28.70;10.80;;;;;;;;;;6241256;28;20053;-69
2024/01/19 04:55:38;;;;;;;28.90;10.45;;;;;;;;;;6237429;28;20121;-69
2024/01/19 04:58:40;;;;;;;24.92;8.05;;;;;;;;;;6239033;28;20111;-69
2024/01/19 05:01:41;;;;;;;27.23;8.95;;;;;;;;;;6242516;28;20640;-69
2024/01/19 05:04:41;;;;;;;22.90;8.90;;;;;;;;;;6241105;28;20053;-70
2024/01/19 05:07:42;;;;;;;24.10;8.13;;;;;;;;;;6240910;28;20041;-69
2024/01/19 05:10:43;;;;;;;25.42;8.43;;;;;;;;;;6243038;28;20041;-69
2024/01/19 05:13:44;;;;;;;27.40;9.57;;;;;;;;;;6242469;28;20050;-70
2024/01/19 05:16:44;;;;;;;23.40;8.82;;;;;;;;;;6242144;28;20046;-69
2024/01/19 05:19:45;;;;;;;23.58;7.63;;;;;;;;;;6241961;28;20410;-70
2024/01/19 05:22:46;;;;;;;25.92;8.55;;;;;;;;;;6242391;28;20049;-69
2024/01/19 05:25:47;;;;;;;21.70;7.50;;;;;;;;;;6240192;28;20404;-69
2024/01/19 05:28:47;;;;;;;19.95;7.20;;;;;;;;;;6238095;28;20050;-69
2024/01/19 05:31:48;;;;;;;21.02;7.50;;;;;;;;;;6242262;28;20488;-69
2024/01/19 05:34:49;;;;;;;24.05;9.05;;;;;;;;;;6243814;28;20041;-69
2024/01/19 05:37:50;;;;;;;26.15;8.57;;;;;;;;;;6243707;28;20049;-69
2024/01/19 05:40:51;;;;;;;22.23;7.90;;;;;;;;;;6245106;28;20417;-69
2024/01/19 05:43:52;;;;;;;25.52;9.25;;;;;;;;;;6241928;28;20053;-69
2024/01/19 05:46:52;;;;;;;26.00;8.98;;;;;;;;;;6238487;28;20511;-69
2024/01/19 05:49:53;;;;;;;29.55;9.32;;;;;;;;;;6225219;28;20049;-68
2024/01/19 05:52:54;;;;;;;29.00;9.38;;;;;;;;;;6236111;28;20054;-70
2024/01/19 05:55:55;;;;;;;29.55;9.18;;;;;;;;;;6243480;28;20046;-71
2024/01/19 05:58:55;;;;;;;29.15;8.77;;;;;;;;;;6240691;28;20057;-69
2024/01/19 06:01:56;;;;;;;20.52;7.35;;;;;;;;;;6230800;28;20140;-70
2024/01/19 06:04:57;;;;;;;21.83;7.07;;;;;;;;;;6232500;28;20438;-66
2024/01/19 06:07:58;;;;;;;19.55;7.80;;;;;;;;;;6235101;28;20056;-72
2024/01/19 06:10:58;;;;;;;26.83;7.53;;;;;;;;;;6226843;28;20516;-70
2024/01/19 06:13:59;;;;;;;24.40;8.43;;;;;;;;;;6231418;28;20045;-70
2024/01/19 06:17:01;;;;;;;23.73;7.90;;;;;;;;;;6241826;28;20481;-70
2024/01/19 06:20:03;;;;;;;24.98;8.40;;;;;;;;;;6229486;28;20057;-69
2024/01/19 06:23:03;;;;;;;28.10;7.88;;;;;;;;;;6243232;28;20048;-70
2024/01/19 06:26:11;;;;;;;26.38;8.52;;;;;;;;;;6233349;28;20111;-70
2024/01/19 06:29:12;;;;;;;24.23;8.88;;;;;;;;;;6229530;28;20041;-70
2024/01/19 06:32:13;;;;;;;24.60;9.43;;;;;;;;;;6241050;28;20362;-71
2024/01/19 06:35:13;;;;;;;25.88;9.80;;;;;;;;;;6229044;28;20049;-72
2024/01/19 06:38:14;;;;;;;28.98;10.70;;;;;;;;;;6224743;28;20057;-72
2024/01/19 06:41:16;;;;;;;31.98;11.18;;;;;;;;;;6242279;28;20111;-72
2024/01/19 06:44:17;;;;;;;;;;;;;;;;;;6242265;28;20045;-72
2024/01/19 06:47:18;;;;;;;33.90;11.82;;;;;;;;;;6242476;28;19921;-72
2024/01/19 06:50:19;;;;;;;36.95;12.10;;;;;;;;;;6237069;28;20052;-67
2024/01/19 06:53:21;;;;;;;32.65;12.15;;;;;;;;;;6242917;28;20409;-69
2024/01/19 06:56:23;;;;;;;37.95;12.90;;;;;;;;;;6240747;28;20057;-70
2024/01/19 06:59:23;;;;;;;33.78;11.80;;;;;;;;;;6239309;28;20123;-72
2024/01/19 07:02:24;;;;;;;33.30;12.30;;;;;;;;;;6241465;28;20052;-72
2024/01/19 07:05:25;;;;;;;32.60;11.95;;;;;;;;;;6230364;28;20046;-71
2024/01/19 07:08:26;;;;;;;35.10;13.75;;;;;;;;;;6234502;28;20045;-71
2024/01/19 07:11:27;;;;;;;36.28;13.15;;;;;;;;;;6242005;28;20056;-72
2024/01/19 07:14:28;;;;;;;31.08;12.07;;;;;;;;;;6241470;28;20054;-72
2024/01/19 07:17:29;;;;;;;37.83;12.35;;;;;;;;;;6242306;28;20917;-71
2024/01/19 07:20:30;;;;;;;37.92;13.52;;;;;;;;;;6242300;28;20079;-72
2024/01/19 07:23:30;;;;;;;33.38;13.07;;;;;;;;;;6241555;28;20492;-72
2024/01/19 07:26:31;;;;;;;38.60;13.50;;;;;;;;;;6240918;28;20061;-72
2024/01/19 07:29:32;;;;;;;45.28;15.57;;;;;;;;;;6242245;28;20045;-72
2024/01/19 07:32:33;;;;;;;36.95;13.40;;;;;;;;;;6240986;28;20045;-72
2024/01/19 07:35:33;;;;;;;33.10;10.60;;;;;;;;;;6237845;28;20413;-72
2024/01/19 07:38:34;;;;;;;27.17;10.80;;;;;;;;;;6241808;28;20173;-71
2024/01/19 07:41:35;;;;;;;30.60;11.05;;;;;;;;;;6240951;28;20050;-71
2024/01/19 07:44:36;;;;;;;32.70;10.68;;;;;;;;;;6241039;28;20061;-72
2024/01/19 07:47:36;;;;;;;32.22;10.43;;;;;;;;;;6230357;28;20111;-71
2024/01/19 07:50:37;;;;;;;26.38;9.57;;;;;;;;;;6247934;28;20071;-71
2024/01/19 07:53:38;;;;;;;24.90;8.63;;;;;;;;;;6223073;28;20046;-71
2024/01/19 07:56:39;;;;;;;31.08;9.57;;;;;;;;;;6239389;28;20050;-71
2024/01/19 07:59:41;;;;;;;27.10;9.35;;;;;;;;;;6232554;28;20049;-70
2024/01/19 08:02:44;;;;;;;25.27;10.07;;;;;;;;;;6236628;28;20049;-70
2024/01/19 08:05:45;;;;;;;34.10;10.95;;;;;;;;;;6239085;28;20130;-71
2024/01/19 08:08:46;;;;;;;30.20;10.25;;;;;;;;;;6241335;28;20050;-71
2024/01/19 08:11:47;;;;;;;28.00;9.98;;;;;;;;;;6240543;28;20052;-70
2024/01/19 08:14:48;;;;;;;25.45;8.80;;;;;;;;;;6235395;28;20042;-71
2024/01/19 08:17:48;;;;;;;27.05;9.65;;;;;;;;;;6229411;28;20045;-71
2024/01/19 08:20:49;;;;;;;28.90;10.52;;;;;;;;;;6226219;28;20619;-71
2024/01/19 08:23:50;;;;;;;36.08;11.55;;;;;;;;;;6228542;28;20045;-71
2024/01/19 08:26:51;;;;;;;39.55;11.57;;;;;;;;;;6238858;28;20408;-71
2024/01/19 08:29:52;;;;;;;40.10;11.65;;;;;;;;;;6238965;28;20049;-70
2024/01/19 08:32:53;;;;;;;33.78;11.70;;;;;;;;;;6233628;28;20579;-70
2024/01/19 08:35:53;;;;;;;43.08;14.02;;;;;;;;;;6236473;28;20064;-70
2024/01/19 08:38:54;;;;;;;37.05;14.38;;;;;;;;;;6235859;28;20068;-70
2024/01/19 08:41:55;;;;;;;35.38;12.88;;;;;;;;;;6237974;28;20075;-70
2024/01/19 08:44:56;;;;;;;35.65;12.68;;;;;;;;;;6236735;28;20075;-65
2024/01/19 08:47:56;;;;;;;33.00;14.05;;;;;;;;;;6234952;28;20045;-71
2024/01/19 08:50:57;;;;;;;35.38;13.75;;;;;;;;;;6236123;28;20046;-70
2024/01/19 08:53:58;;;;;;;44.92;14.77;;;;;;;;;;6233906;28;20116;-70
2024/01/19 08:56:59;;;;;;;41.75;13.68;;;;;;;;;;6236835;28;20056;-70
2024/01/19 08:59:59;;;;;;;37.78;13.05;;;;;;;;;;6237781;28;20111;-70
2024/01/19 09:03:00;;;;;;;40.20;13.25;;;;;;;;;;6235578;28;20128;-70
2024/01/19 09:06:01;;;;;;;37.05;12.93;;;;;;;;;;6234923;28;20132;-70
2024/01/19 09:09:03;;;;;;;37.30;13.02;;;;;;;;;;6238184;28;20411;-69
2024/01/19 09:12:04;;;;;;;40.13;13.02;;;;;;;;;;6233883;28;20103;-70
2024/01/19 09:15:06;;;;;;;36.13;12.10;;;;;;;;;;6236474;28;20056;-69
2024/01/19 09:18:07;;;;;;;31.60;10.88;;;;;;;;;;6238810;28;20042;-70
2024/01/19 09:21:15;;;;;;;28.53;10.43;;;;;;;;;;6228005;28;20480;-70
2024/01/19 09:24:17;;;;;;;26.70;9.82;;;;;;;;;;6235059;28;20507;-70
2024/01/19 09:27:18;;;;;;;34.00;12.27;;;;;;;;;;6234968;28;20068;-70
2024/01/19 09:30:18;;;;;;;29.88;10.95;;;;;;;;;;6235877;28;20045;-70
2024/01/19 09:33:19;;;;;;;33.30;13.13;;;;;;;;;;6234259;28;20045;-69
2024/01/19 09:36:20;;;;;;;29.95;12.13;;;;;;;;;;6228887;28;20057;-70
2024/01/19 09:39:23;;;;;;;33.28;12.70;;;;;;;;;;6232263;28;20081;-70
2024/01/19 09:42:30;;;;;;;37.90;13.73;;;;;;;;;;6235543;28;20423;-70
2024/01/19 09:45:40;;;;;;;39.17;13.48;;;;;;;;;;6234762;28;20046;-70
2024/01/19 09:48:49;;;;;;;40.90;13.73;;;;;;;;;;6239889;28;20081;-70
2024/01/19 09:51:57;;;;;;;36.55;14.85;;;;;;;;;;6233182;28;20041;-70
2024/01/19 09:54:57;;;;;;;33.38;13.45;;;;;;;;;;6240118;28;20052;-70
2024/01/19 09:57:59;;;;;;;40.42;13.50;;;;;;;;;;6238340;28;20050;-70
2024/01/19 10:01:00;;;;;;;35.72;13.20;;;;;;;;;;6236764;28;20037;-70
2024/01/19 10:04:05;;;;;;;36.40;14.32;;;;;;;;;;6234232;28;20144;-70
2024/01/19 10:07:07;;;;;;;35.58;12.98;;;;;;;;;;6239557;28;20049;-70
2024/01/19 10:10:08;;;;;;;36.28;13.35;;;;;;;;;;6235543;28;20045;-71
2024/01/19 10:13:10;;;;;;;38.33;12.65;;;;;;;;;;6229391;28;20044;-70
2024/01/19 10:16:11;;;;;;;;;;;;;;;;;;6237337;28;20493;-70
2024/01/19 10:19:12;;;;;;;36.60;12.95;;;;;;;;;;6237680;28;19932;-70
2024/01/19 10:22:24;;;;;;;42.90;14.13;;;;;;;;;;6238234;28;20045;-70
2024/01/19 10:25:24;;;;;;;47.38;16.48;;;;;;;;;;6234050;28;20426;-71
2024/01/19 10:28:35;;;;;;;41.97;15.25;;;;;;;;;;6236556;28;20045;-71
2024/01/19 10:31:36;;;;;;;39.78;14.05;;;;;;;;;;6238625;28;20091;-71
2024/01/19 10:34:37;;;;;;;38.77;14.53;;;;;;;;;;6237637;28;20050;-71
2024/01/19 10:37:38;;;;;;;38.72;13.50;;;;;;;;;;6237139;28;20053;-70
2024/01/19 10:40:39;;;;;;;35.40;13.32;;;;;;;;;;6231858;28;20114;-70
2024/01/19 10:43:39;;;;;;;37.42;14.02;;;;;;;;;;6236802;28;20045;-71
2024/01/19 10:46:41;;;;;;;34.03;13.05;;;;;;;;;;6235742;28;20045;-70
2024/01/19 10:49:41;;;;;;;42.10;17.20;;;;;;;;;;6232343;28;20984;-70
2024/01/19 10:52:45;;;;;;;30.15;12.10;;;;;;;;;;6238901;28;20098;-71
2024/01/19 10:55:47;;;;;;;31.45;11.50;;;;;;;;;;6237942;28;20065;-71
2024/01/19 10:58:49;;;;;;;30.25;11.48;;;;;;;;;;6238867;28;20064;-71
2024/01/19 11:01:58;;;;;;;31.00;11.13;;;;;;;;;;6238369;28;20492;-71
2024/01/19 11:04:59;;;;;;;30.98;11.82;;;;;;;;;;6238535;28;20093;-71
2024/01/19 11:08:01;;;;;;;29.33;10.68;;;;;;;;;;6241603;28;20053;-71
2024/01/19 11:11:05;;;;;;;30.55;11.68;;;;;;;;;;6235890;28;20091;-71
2024/01/19 11:14:08;;;;;;;31.85;11.73;;;;;;;;;;6241025;28;20060;-71
2024/01/19 11:17:10;;;;;;;26.75;10.25;;;;;;;;;;6237390;28;20481;-71
2024/01/19 11:20:11;;;;;;;32.78;11.63;;;;;;;;;;6234845;28;20053;-71
2024/01/19 11:23:13;;;;;;;44.30;18.95;;;;;;;;;;6238851;28;20045;-71
2024/01/19 11:26:26;;;;;;;39.97;14.30;;;;;;;;;;6240067;28;20136;-71
2024/01/19 11:29:32;;;;;;;37.97;14.50;;;;;;;;;;6244950;28;20056;-72
2024/01/19 11:32:33;;;;;;;28.98;11.00;;;;;;;;;;6234581;28;20045;-71
2024/01/19 11:35:41;;;;;;;32.95;11.65;;;;;;;;;;6244299;28;20045;-71
2024/01/19 11:38:43;;;;;;;33.13;12.20;;;;;;;;;;6241641;28;20558;-71
2024/01/19 11:41:46;;;;;;;32.45;12.98;;;;;;;;;;6221833;28;20053;-72
2024/01/19 11:44:47;;;;;;;32.03;12.57;;;;;;;;;;6235309;28;20061;-72
2024/01/19 11:47:48;;;;;;;36.63;14.57;;;;;;;;;;6239701;28;20053;-72
2024/01/19 11:50:51;;;;;;;38.10;13.82;;;;;;;;;;6238482;28;20413;-72
2024/01/19 11:53:59;;;;;;;41.38;14.48;;;;;;;;;;6233579;28;20042;-72
2024/01/19 11:57:24;;;;;;;42.55;15.90;;;;;;;;;;6235154;28;20103;-72
2024/01/19 12:00:25;;;;;;;38.17;14.00;;;;;;;;;;6235525;28;20056;-71
2024/01/19 12:03:27;;;;;;;35.50;14.20;;;;;;;;;;6236117;28;20049;-72
2024/01/19 12:06:28;;;;;;;39.67;14.82;;;;;;;;;;6239532;28;20715;-72
2024/01/19 12:09:28;;;;;;;35.50;14.20;;;;;;;;;;6236786;28;20103;-72
2024/01/19 12:12:29;;;;;;;40.38;14.38;;;;;;;;;;6232800;28;20083;-72
2024/01/19 12:15:30;;;;;;;32.95;12.20;;;;;;;;;;6236260;28;20049;-72
2024/01/19 12:18:33;;;;;;;32.05;13.27;;;;;;;;;;6239543;28;20058;-71
2024/01/19 12:21:33;;;;;;;36.28;12.27;;;;;;;;;;6232196;28;20551;-71
2024/01/19 12:24:35;;;;;;;37.53;12.85;;;;;;;;;;6236015;28;20045;-68
2024/01/19 12:27:36;;;;;;;38.80;13.70;;;;;;;;;;6236386;28;20057;-71
2024/01/19 12:30:38;;;;;;;32.42;11.88;;;;;;;;;;6248735;28;20170;-66
2024/01/19 12:33:39;;;;;;;35.25;12.80;;;;;;;;;;6250672;28;20052;-71
2024/01/19 12:36:41;;;;;;;36.47;13.02;;;;;;;;;;6232584;28;20049;-70
2024/01/19 12:39:41;;;;;;;28.52;10.90;;;;;;;;;;6230251;28;20049;-71
2024/01/19 12:42:42;;;;;;;30.00;11.60;;;;;;;;;;6234828;28;20069;-71
2024/01/19 12:45:43;;;;;;;32.13;12.15;;;;;;;;;;6238040;28;20046;-71
2024/01/19 12:48:56;;;;;;;33.33;12.43;;;;;;;;;;6242435;28;20122;-71
2024/01/19 12:51:57;;;;;;;33.83;13.00;;;;;;;;;;6244940;28;20476;-71
2024/01/19 12:54:58;;;;;;;32.55;13.18;;;;;;;;;;6240908;28;20107;-70
2024/01/19 12:57:59;;;;;;;35.08;12.45;;;;;;;;;;6239841;28;20057;-71
2024/01/19 13:01:05;;;;;;;35.00;14.55;;;;;;;;;;6239037;28;20053;-70
2024/01/19 13:04:05;;;;;;;34.38;13.30;;;;;;;;;;6237064;28;20042;-70
2024/01/19 13:07:06;;;;;;;34.83;12.90;;;;;;;;;;6235673;28;20190;-70
2024/01/19 13:10:07;;;;;;;36.05;13.43;;;;;;;;;;6241345;28;20057;-70
2024/01/19 13:13:13;;;;;;;33.10;12.80;;;;;;;;;;6245907;28;20049;-70
2024/01/19 13:16:13;;;;;;;31.75;12.75;;;;;;;;;;6229501;28;20050;-69
2024/01/19 13:19:15;;;;;;;34.47;12.80;;;;;;;;;;6243779;28;20049;-69
2024/01/19 13:22:15;;;;;;;35.30;13.27;;;;;;;;;;6241456;28;20137;-69
2024/01/19 13:25:16;;;;;;;34.15;12.45;;;;;;;;;;6236416;28;20049;-69
2024/01/19 13:28:17;;;;;;;35.28;14.32;;;;;;;;;;6238613;28;20064;-69
2024/01/19 13:31:18;;;;;;;34.25;11.93;;;;;;;;;;6241492;28;20049;-69
2024/01/19 13:34:19;;;;;;;33.30;12.93;;;;;;;;;;6238139;28;20049;-68
2024/01/19 13:37:20;;;;;;;36.58;13.52;;;;;;;;;;6241419;28;20038;-68
2024/01/19 13:40:21;;;;;;;36.60;12.40;;;;;;;;;;6238195;28;20107;-66
2024/01/19 13:43:22;;;;;;;32.80;12.35;;;;;;;;;;6243937;28;20045;-66
2024/01/19 13:46:22;;;;;;;35.50;13.85;;;;;;;;;;6242003;28;20096;-65
2024/01/19 13:49:23;;;;;;;38.58;14.25;;;;;;;;;;6243745;28;20124;-67
2024/01/19 13:52:24;;;;;;;29.73;12.32;;;;;;;;;;6242099;28;20045;-69
2024/01/19 13:55:25;;;;;;;35.25;13.65;;;;;;;;;;6238750;28;20049;-69
2024/01/19 13:58:26;;;;;;;33.97;13.50;;;;;;;;;;6241735;28;20041;-65
2024/01/19 14:01:27;;;;;;;32.05;13.25;;;;;;;;;;6242288;28;20048;-64
2024/01/19 14:04:30;;;;;;;37.13;13.40;;;;;;;;;;6242691;28;20049;-64
2024/01/19 14:07:31;;;;;;;33.20;12.27;;;;;;;;;;6238316;28;20060;-67
2024/01/19 14:10:32;;;;;;;35.45;13.30;;;;;;;;;;6242737;28;20050;-68
2024/01/19 14:13:33;;;;;;;32.53;12.82;;;;;;;;;;6240054;28;20746;-64
2024/01/19 14:16:35;;;;;;;32.03;11.68;;;;;;;;;;6241700;28;20049;-64
2024/01/19 14:19:38;;;;;;;;;;;;;;;;;;6243444;28;20056;-64
2024/01/19 14:22:40;;;;;;;33.88;11.18;;;;;;;;;;6242127;28;19975;-63
2024/01/19 14:25:41;;;;;;;38.67;12.40;;;;;;;;;;6227998;28;20053;-62
2024/01/19 14:28:42;;;;;;;32.53;11.40;;;;;;;;;;6239291;28;20052;-63
2024/01/19 14:31:43;;;;;;;33.55;11.55;;;;;;;;;;6243141;28;20073;-64
2024/01/19 14:34:44;;;;;;;35.28;11.98;;;;;;;;;;6241946;28;20045;-65
2024/01/19 14:37:49;;;;;;;33.35;12.48;;;;;;;;;;6240981;28;20075;-64
2024/01/19 14:40:49;;;;;;;31.08;11.50;;;;;;;;;;6242731;28;20053;-64
2024/01/19 14:43:50;;;;;;;37.83;14.98;;;;;;;;;;6242605;28;20455;-66
2024/01/19 14:46:52;;;;;;;38.08;14.52;;;;;;;;;;6233939;28;20053;-64
2024/01/19 14:49:53;;;;;;;37.85;14.35;;;;;;;;;;6241023;28;20045;-63
2024/01/19 14:53:00;;;;;;;38.63;13.05;;;;;;;;;;6238239;28;20050;-63
2024/01/19 14:56:01;;;;;;;33.50;12.82;;;;;;;;;;6232885;28;20034;-63
2024/01/19 14:59:02;;;;;;;38.42;13.32;;;;;;;;;;6239807;28;20072;-63
2024/01/19 15:02:03;;;;;;;50.53;16.00;;;;;;;;;;6241470;28;20083;-67
2024/01/19 15:05:04;;;;;;;39.70;17.13;;;;;;;;;;6242053;28;20477;-69
2024/01/19 15:08:05;;;;;;;54.93;20.57;;;;;;;;;;6229576;28;20049;-62
2024/01/19 15:11:06;;;;;;;42.95;17.02;;;;;;;;;;6240471;28;20179;-66
2024/01/19 15:14:07;;;;;;;41.65;16.38;;;;;;;;;;6242506;28;20499;-69
2024/01/19 15:17:08;;;;;;;49.05;17.05;;;;;;;;;;6237167;28;20448;-70
2024/01/19 15:20:09;;;;;;;60.67;22.33;;;;;;;;;;6240952;28;20045;-64
2024/01/19 15:23:10;;;;;;;54.00;21.65;;;;;;;;;;6241973;28;20435;-67
2024/01/19 15:26:18;;;;;;;63.33;23.55;;;;;;;;;;6240126;28;20055;-68
2024/01/19 15:29:19;;;;;;;60.08;22.20;;;;;;;;;;6241356;28;20045;-67
2024/01/19 15:32:20;;;;;;;52.67;18.35;;;;;;;;;;6241841;28;20444;-67
2024/01/19 15:35:20;;;;;;;48.90;17.40;;;;;;;;;;6241543;28;20594;-66
2024/01/19 15:38:21;;;;;;;47.30;17.77;;;;;;;;;;6238413;28;20049;-67
2024/01/19 15:41:23;;;;;;;51.45;16.27;;;;;;;;;;6239533;28;20046;-67
2024/01/19 15:44:24;;;;;;;48.75;17.85;;;;;;;;;;6235726;28;20057;-68
2024/01/19 15:47:25;;;;;;;57.25;21.67;;;;;;;;;;6232563;28;20541;-69
2024/01/19 15:50:26;;;;;;;55.40;20.85;;;;;;;;;;6239045;28;20053;-67
2024/01/19 15:53:26;;;;;;;48.22;19.65;;;;;;;;;;6235845;28;20045;-69
2024/01/19 15:56:28;;;;;;;51.60;17.67;;;;;;;;;;6236690;28;20045;-68
2024/01/19 15:59:29;;;;;;;48.28;17.45;;;;;;;;;;6234644;28;20053;-68
2024/01/19 16:02:32;;;;;;;51.45;17.90;;;;;;;;;;6232404;28;20049;-68
2024/01/19 16:05:32;;;;;;;57.85;17.92;;;;;;;;;;6226977;28;20564;-68
2024/01/19 16:08:33;;;;;;;48.03;17.08;;;;;;;;;;6224875;28;20049;-68
2024/01/19 16:11:34;;;;;;;48.92;17.92;;;;;;;;;;6231731;28;20041;-68
2024/01/19 16:14:35;;;;;;;56.80;20.08;;;;;;;;;;6251401;28;20099;-68
2024/01/19 16:17:37;;;;;;;54.15;18.67;;;;;;;;;;6228412;28;20046;-69
2024/01/19 16:20:38;;;;;;;55.22;18.23;;;;;;;;;;6233671;28;20068;-68
2024/01/19 16:23:39;;;;;;;48.00;18.85;;;;;;;;;;6234594;28;20045;-69
2024/01/19 16:26:44;;;;;;;48.20;17.60;;;;;;;;;;6228160;28;20496;-71
2024/01/19 16:29:44;;;;;;;47.08;17.70;;;;;;;;;;6236318;28;20191;-69
2024/01/19 16:32:48;;;;;;;49.65;16.63;;;;;;;;;;6233660;28;20046;-69
2024/01/19 16:35:49;;;;;;;49.30;16.95;;;;;;;;;;6235435;28;20589;-69
2024/01/19 16:38:49;;;;;;;54.47;17.67;;;;;;;;;;6230838;28;20057;-69
2024/01/19 16:41:54;;;;;;;51.22;19.13;;;;;;;;;;6231711;28;20052;-68
2024/01/19 16:44:55;;;;;;;51.75;19.08;;;;;;;;;;6234900;28;20064;-68
2024/01/19 16:47:57;;;;;;;55.08;17.70;;;;;;;;;;6228625;28;20560;-68
2024/01/19 16:50:59;;;;;;;48.70;17.13;;;;;;;;;;6230197;28;20041;-68
2024/01/19 16:54:01;;;;;;;49.80;17.75;;;;;;;;;;6237689;28;20207;-69
2024/01/19 16:57:05;;;;;;;50.65;18.27;;;;;;;;;;6231383;28;20752;-68
2024/01/19 17:00:06;;;;;;;54.10;19.67;;;;;;;;;;6234296;28;20168;-68
2024/01/19 17:03:11;;;;;;;48.35;17.92;;;;;;;;;;6234559;28;20537;-68
2024/01/19 17:06:12;;;;;;;53.42;19.52;;;;;;;;;;6240931;28;20160;-68
2024/01/19 17:09:13;;;;;;;58.17;20.23;;;;;;;;;;6233788;28;20053;-69
2024/01/19 17:12:14;;;;;;;63.08;20.55;;;;;;;;;;6237430;28;20432;-68
2024/01/19 17:15:15;;;;;;;55.55;20.25;;;;;;;;;;6243304;28;20045;-69
2024/01/19 17:18:15;;;;;;;57.58;20.95;;;;;;;;;;6233718;28;20463;-68
2024/01/19 17:21:16;;;;;;;54.85;20.45;;;;;;;;;;6242160;28;20509;-70
2024/01/19 17:24:17;;;;;;;56.50;21.92;;;;;;;;;;6239536;28;20428;-69
2024/01/19 17:27:18;;;;;;;54.03;20.92;;;;;;;;;;6237618;28;20184;-68
2024/01/19 17:30:21;;;;;;;55.03;20.63;;;;;;;;;;6234848;28;20045;-68
2024/01/19 17:33:22;;;;;;;57.13;20.88;;;;;;;;;;6239067;28;20045;-70
2024/01/19 17:36:23;;;;;;;58.03;21.85;;;;;;;;;;6233734;28;20049;-69
2024/01/19 17:39:24;;;;;;;60.85;22.15;;;;;;;;;;6235012;28;20060;-69
2024/01/19 17:42:25;;;;;;;64.05;24.15;;;;;;;;;;6234000;28;20049;-69